sensor_id;sensor_type;location;lat;lon;timestamp;P1;durP1;ratioP1;P2;durP2;ratioP2
56373;SDS011;58212;47.034;7.376;2024-01-07T00:02:15;4.25;;;3.90;;
56373;SDS011;58212;47.034;7.376;2024-01-07T00:04:42;4.75;;;4.20;;
56373;SDS011;58212;47.034;7.376;2024-01-07T00:07:08;4.32;;;3.92;;
56373;SDS011;58212;47.034;7.376;2024-01-07T00:09:35;5.30;;;4.80;;
56373;SDS011;58212;47.034;7.376;2024-01-07T00:12:02;7.13;;;5.72;;
56373;SDS011;58212;47.034;7.376;2024-01-07T00:14:29;6.85;;;5.65;;
56373;SDS011;58212;47.034;7.376;2024-01-07T00:16:57;5.40;;;4.90;;
56373;SDS011;58212;47.034;7.376;2024-01-07T00:19:25;5.38;;;4.88;;
56373;SDS011;58212;47.034;7.376;2024-01-07T00:21:52;5.63;;;4.85;;
56373;SDS011;58212;47.034;7.376;2024-01-07T00:24:19;5.82;;;5.32;;
56373;SDS011;58212;47.034;7.376;2024-01-07T00:26:45;6.50;;;5.07;;
56373;SDS011;58212;47.034;7.376;2024-01-07T00:29:12;5.70;;;5.10;;
56373;SDS011;58212;47.034;7.376;2024-01-07T00:31:39;6.28;;;4.97;;
56373;SDS011;58212;47.034;7.376;2024-01-07T00:34:09;6.03;;;5.43;;
56373;SDS011;58212;47.034;7.376;2024-01-07T00:36:35;7.22;;;6.50;;
56373;SDS011;58212;47.034;7.376;2024-01-07T00:39:02;6.60;;;6.00;;
56373;SDS011;58212;47.034;7.376;2024-01-07T00:41:29;7.30;;;6.28;;
56373;SDS011;58212;47.034;7.376;2024-01-07T00:43:56;6.63;;;5.85;;
56373;SDS011;58212;47.034;7.376;2024-01-07T00:46:23;6.30;;;5.70;;
56373;SDS011;58212;47.034;7.376;2024-01-07T00:48:50;5.75;;;5.18;;
56373;SDS011;58212;47.034;7.376;2024-01-07T00:51:18;5.78;;;5.18;;
56373;SDS011;58212;47.034;7.376;2024-01-07T00:53:45;4.97;;;4.50;;
56373;SDS011;58212;47.034;7.376;2024-01-07T00:56:12;4.20;;;3.80;;
56373;SDS011;58212;47.034;7.376;2024-01-07T00:58:38;5.43;;;4.05;;
56373;SDS011;58212;47.034;7.376;2024-01-07T01:01:05;4.45;;;4.05;;
56373;SDS011;58212;47.034;7.376;2024-01-07T01:03:32;4.40;;;4.03;;
56373;SDS011;58212;47.034;7.376;2024-01-07T01:05:59;4.80;;;4.40;;
56373;SDS011;58212;47.034;7.376;2024-01-07T01:08:29;4.03;;;3.63;;
56373;SDS011;58212;47.034;7.376;2024-01-07T01:10:56;4.30;;;3.70;;
56373;SDS011;58212;47.034;7.376;2024-01-07T01:13:23;4.10;;;3.67;;
56373;SDS011;58212;47.034;7.376;2024-01-07T01:15:50;3.72;;;3.42;;
56373;SDS011;58212;47.034;7.376;2024-01-07T01:18:17;3.83;;;3.53;;
56373;SDS011;58212;47.034;7.376;2024-01-07T01:20:45;3.67;;;3.38;;
56373;SDS011;58212;47.034;7.376;2024-01-07T01:23:11;3.95;;;3.65;;
56373;SDS011;58212;47.034;7.376;2024-01-07T01:25:40;4.43;;;3.10;;
56373;SDS011;58212;47.034;7.376;2024-01-07T01:28:06;3.58;;;3.28;;
56373;SDS011;58212;47.034;7.376;2024-01-07T01:30:33;3.80;;;3.40;;
56373;SDS011;58212;47.034;7.376;2024-01-07T01:33:01;3.25;;;2.90;;
56373;SDS011;58212;47.034;7.376;2024-01-07T01:35:28;3.65;;;3.33;;
56373;SDS011;58212;47.034;7.376;2024-01-07T01:37:55;3.50;;;3.20;;
56373;SDS011;58212;47.034;7.376;2024-01-07T01:40:23;3.40;;;3.10;;
56373;SDS011;58212;47.034;7.376;2024-01-07T01:42:51;3.38;;;3.08;;
56373;SDS011;58212;47.034;7.376;2024-01-07T01:45:18;3.58;;;3.28;;
56373;SDS011;58212;47.034;7.376;2024-01-07T01:47:45;3.50;;;3.20;;
56373;SDS011;58212;47.034;7.376;2024-01-07T01:50:13;3.28;;;3.05;;
56373;SDS011;58212;47.034;7.376;2024-01-07T01:52:41;3.38;;;3.08;;
56373;SDS011;58212;47.034;7.376;2024-01-07T01:55:09;3.53;;;3.20;;
56373;SDS011;58212;47.034;7.376;2024-01-07T01:57:36;3.53;;;3.22;;
56373;SDS011;58212;47.034;7.376;2024-01-07T02:00:07;3.63;;;3.33;;
56373;SDS011;58212;47.034;7.376;2024-01-07T02:02:34;3.70;;;3.40;;
56373;SDS011;58212;47.034;7.376;2024-01-07T02:05:01;4.82;;;3.15;;
56373;SDS011;58212;47.034;7.376;2024-01-07T02:07:28;3.72;;;3.42;;
56373;SDS011;58212;47.034;7.376;2024-01-07T02:09:56;4.30;;;3.03;;
56373;SDS011;58212;47.034;7.376;2024-01-07T02:12:23;3.50;;;3.13;;
56373;SDS011;58212;47.034;7.376;2024-01-07T02:14:50;3.58;;;3.28;;
56373;SDS011;58212;47.034;7.376;2024-01-07T02:17:19;3.80;;;3.40;;
56373;SDS011;58212;47.034;7.376;2024-01-07T02:19:46;3.75;;;3.42;;
56373;SDS011;58212;47.034;7.376;2024-01-07T02:22:13;4.30;;;3.35;;
56373;SDS011;58212;47.034;7.376;2024-01-07T02:24:41;3.38;;;3.08;;
56373;SDS011;58212;47.034;7.376;2024-01-07T02:27:08;3.35;;;3.10;;
56373;SDS011;58212;47.034;7.376;2024-01-07T02:29:35;3.67;;;3.38;;
56373;SDS011;58212;47.034;7.376;2024-01-07T02:32:02;3.55;;;3.25;;
56373;SDS011;58212;47.034;7.376;2024-01-07T02:34:30;3.30;;;3.00;;
56373;SDS011;58212;47.034;7.376;2024-01-07T02:36:56;3.00;;;2.80;;
56373;SDS011;58212;47.034;7.376;2024-01-07T02:39:23;3.60;;;3.30;;
56373;SDS011;58212;47.034;7.376;2024-01-07T02:41:51;3.50;;;3.20;;
56373;SDS011;58212;47.034;7.376;2024-01-07T02:44:18;3.25;;;2.95;;
56373;SDS011;58212;47.034;7.376;2024-01-07T02:46:45;3.10;;;2.90;;
56373;SDS011;58212;47.034;7.376;2024-01-07T02:49:13;3.97;;;2.85;;
56373;SDS011;58212;47.034;7.376;2024-01-07T02:51:40;3.00;;;2.70;;
56373;SDS011;58212;47.034;7.376;2024-01-07T02:54:08;3.47;;;2.70;;
56373;SDS011;58212;47.034;7.376;2024-01-07T02:56:35;2.88;;;2.58;;
56373;SDS011;58212;47.034;7.376;2024-01-07T02:59:03;2.55;;;2.35;;
56373;SDS011;58212;47.034;7.376;2024-01-07T03:01:30;2.83;;;2.60;;
56373;SDS011;58212;47.034;7.376;2024-01-07T03:03:57;2.83;;;2.63;;
56373;SDS011;58212;47.034;7.376;2024-01-07T03:06:26;2.80;;;2.60;;
56373;SDS011;58212;47.034;7.376;2024-01-07T03:08:53;2.70;;;2.50;;
56373;SDS011;58212;47.034;7.376;2024-01-07T03:11:20;2.97;;;2.67;;
56373;SDS011;58212;47.034;7.376;2024-01-07T03:13:47;2.88;;;2.58;;
56373;SDS011;58212;47.034;7.376;2024-01-07T03:16:22;3.35;;;2.50;;
56373;SDS011;58212;47.034;7.376;2024-01-07T03:18:49;2.45;;;2.25;;
56373;SDS011;58212;47.034;7.376;2024-01-07T03:21:17;2.47;;;2.28;;
56373;SDS011;58212;47.034;7.376;2024-01-07T03:23:45;2.50;;;2.30;;
56373;SDS011;58212;47.034;7.376;2024-01-07T03:26:13;3.30;;;2.28;;
56373;SDS011;58212;47.034;7.376;2024-01-07T03:28:40;2.40;;;2.20;;
56373;SDS011;58212;47.034;7.376;2024-01-07T03:31:08;2.95;;;2.72;;
56373;SDS011;58212;47.034;7.376;2024-01-07T03:33:37;2.50;;;2.30;;
56373;SDS011;58212;47.034;7.376;2024-01-07T03:36:06;3.10;;;2.90;;
56373;SDS011;58212;47.034;7.376;2024-01-07T03:38:34;3.00;;;2.47;;
56373;SDS011;58212;47.034;7.376;2024-01-07T03:41:01;2.72;;;2.50;;
56373;SDS011;58212;47.034;7.376;2024-01-07T03:43:28;3.10;;;2.90;;
56373;SDS011;58212;47.034;7.376;2024-01-07T03:45:55;2.90;;;2.70;;
56373;SDS011;58212;47.034;7.376;2024-01-07T03:48:22;3.22;;;2.92;;
56373;SDS011;58212;47.034;7.376;2024-01-07T03:53:43;3.42;;;3.13;;
56373;SDS011;58212;47.034;7.376;2024-01-07T03:56:14;4.72;;;3.33;;
56373;SDS011;58212;47.034;7.376;2024-01-07T03:58:41;3.55;;;3.25;;
56373;SDS011;58212;47.034;7.376;2024-01-07T04:01:08;3.50;;;3.20;;
56373;SDS011;58212;47.034;7.376;2024-01-07T04:03:35;3.40;;;3.10;;
56373;SDS011;58212;47.034;7.376;2024-01-07T04:06:01;2.70;;;2.50;;
56373;SDS011;58212;47.034;7.376;2024-01-07T04:08:34;3.40;;;3.10;;
56373;SDS011;58212;47.034;7.376;2024-01-07T04:11:01;3.75;;;3.40;;
56373;SDS011;58212;47.034;7.376;2024-01-07T04:13:28;3.08;;;2.88;;
56373;SDS011;58212;47.034;7.376;2024-01-07T04:15:55;3.50;;;3.20;;
56373;SDS011;58212;47.034;7.376;2024-01-07T04:18:22;3.53;;;3.22;;
56373;SDS011;58212;47.034;7.376;2024-01-07T04:20:49;3.60;;;3.30;;
56373;SDS011;58212;47.034;7.376;2024-01-07T04:23:16;3.92;;;3.63;;
56373;SDS011;58212;47.034;7.376;2024-01-07T04:25:44;4.22;;;3.83;;
56373;SDS011;58212;47.034;7.376;2024-01-07T04:28:11;3.50;;;3.20;;
56373;SDS011;58212;47.034;7.376;2024-01-07T04:30:38;3.80;;;3.50;;
56373;SDS011;58212;47.034;7.376;2024-01-07T04:33:05;4.28;;;3.58;;
56373;SDS011;58212;47.034;7.376;2024-01-07T04:35:32;3.67;;;3.38;;
56373;SDS011;58212;47.034;7.376;2024-01-07T04:37:59;3.72;;;3.38;;
56373;SDS011;58212;47.034;7.376;2024-01-07T04:40:26;3.47;;;3.17;;
56373;SDS011;58212;47.034;7.376;2024-01-07T04:42:54;3.40;;;3.10;;
56373;SDS011;58212;47.034;7.376;2024-01-07T04:45:21;3.33;;;3.03;;
56373;SDS011;58212;47.034;7.376;2024-01-07T04:47:48;3.33;;;3.03;;
56373;SDS011;58212;47.034;7.376;2024-01-07T04:50:15;2.78;;;2.58;;
56373;SDS011;58212;47.034;7.376;2024-01-07T04:52:45;3.50;;;3.20;;
56373;SDS011;58212;47.034;7.376;2024-01-07T04:55:12;3.40;;;3.10;;
56373;SDS011;58212;47.034;7.376;2024-01-07T04:57:40;3.88;;;3.58;;
56373;SDS011;58212;47.034;7.376;2024-01-07T05:00:10;3.35;;;3.03;;
56373;SDS011;58212;47.034;7.376;2024-01-07T05:02:38;4.70;;;3.38;;
56373;SDS011;58212;47.034;7.376;2024-01-07T05:05:04;3.15;;;2.85;;
56373;SDS011;58212;47.034;7.376;2024-01-07T05:07:35;2.90;;;2.70;;
56373;SDS011;58212;47.034;7.376;2024-01-07T05:10:03;3.35;;;3.05;;
56373;SDS011;58212;47.034;7.376;2024-01-07T05:12:31;2.80;;;2.58;;
56373;SDS011;58212;47.034;7.376;2024-01-07T05:14:58;2.83;;;2.60;;
56373;SDS011;58212;47.034;7.376;2024-01-07T05:17:26;2.88;;;2.60;;
56373;SDS011;58212;47.034;7.376;2024-01-07T05:19:53;4.65;;;2.55;;
56373;SDS011;58212;47.034;7.376;2024-01-07T05:22:20;3.78;;;2.53;;
56373;SDS011;58212;47.034;7.376;2024-01-07T05:24:46;2.70;;;2.50;;
56373;SDS011;58212;47.034;7.376;2024-01-07T05:27:13;2.03;;;1.83;;
56373;SDS011;58212;47.034;7.376;2024-01-07T05:29:44;2.03;;;1.92;;
56373;SDS011;58212;47.034;7.376;2024-01-07T05:32:11;1.80;;;1.70;;
56373;SDS011;58212;47.034;7.376;2024-01-07T05:34:39;1.75;;;1.65;;
56373;SDS011;58212;47.034;7.376;2024-01-07T05:37:07;1.60;;;1.50;;
56373;SDS011;58212;47.034;7.376;2024-01-07T05:39:34;1.45;;;1.35;;
56373;SDS011;58212;47.034;7.376;2024-01-07T05:42:01;1.52;;;1.42;;
56373;SDS011;58212;47.034;7.376;2024-01-07T05:44:28;1.60;;;1.50;;
56373;SDS011;58212;47.034;7.376;2024-01-07T05:46:55;1.50;;;1.40;;
56373;SDS011;58212;47.034;7.376;2024-01-07T05:49:22;1.33;;;1.23;;
56373;SDS011;58212;47.034;7.376;2024-01-07T05:51:51;1.40;;;1.30;;
56373;SDS011;58212;47.034;7.376;2024-01-07T05:54:17;1.60;;;1.50;;
56373;SDS011;58212;47.034;7.376;2024-01-07T05:56:44;1.48;;;1.38;;
56373;SDS011;58212;47.034;7.376;2024-01-07T05:59:11;1.58;;;1.48;;
56373;SDS011;58212;47.034;7.376;2024-01-07T06:01:38;1.60;;;1.50;;
56373;SDS011;58212;47.034;7.376;2024-01-07T06:04:05;2.38;;;1.77;;
56373;SDS011;58212;47.034;7.376;2024-01-07T06:06:32;1.70;;;1.60;;
56373;SDS011;58212;47.034;7.376;2024-01-07T06:09:00;1.58;;;1.48;;
56373;SDS011;58212;47.034;7.376;2024-01-07T06:11:27;1.80;;;1.70;;
56373;SDS011;58212;47.034;7.376;2024-01-07T06:13:54;1.83;;;1.73;;
56373;SDS011;58212;47.034;7.376;2024-01-07T06:16:21;1.77;;;1.65;;
56373;SDS011;58212;47.034;7.376;2024-01-07T06:18:48;1.60;;;1.50;;
56373;SDS011;58212;47.034;7.376;2024-01-07T06:21:15;2.08;;;1.98;;
56373;SDS011;58212;47.034;7.376;2024-01-07T06:23:42;1.90;;;1.70;;
56373;SDS011;58212;47.034;7.376;2024-01-07T06:26:12;1.92;;;1.83;;
56373;SDS011;58212;47.034;7.376;2024-01-07T06:28:38;1.75;;;1.60;;
56373;SDS011;58212;47.034;7.376;2024-01-07T06:31:05;1.90;;;1.73;;
56373;SDS011;58212;47.034;7.376;2024-01-07T06:33:32;1.70;;;1.60;;
56373;SDS011;58212;47.034;7.376;2024-01-07T06:35:59;1.70;;;1.60;;
56373;SDS011;58212;47.034;7.376;2024-01-07T06:38:26;1.80;;;1.70;;
56373;SDS011;58212;47.034;7.376;2024-01-07T06:40:53;2.17;;;1.42;;
56373;SDS011;58212;47.034;7.376;2024-01-07T06:43:22;2.13;;;1.80;;
56373;SDS011;58212;47.034;7.376;2024-01-07T06:45:49;1.63;;;1.52;;
56373;SDS011;58212;47.034;7.376;2024-01-07T06:48:16;2.20;;;2.00;;
56373;SDS011;58212;47.034;7.376;2024-01-07T06:50:43;1.60;;;1.50;;
56373;SDS011;58212;47.034;7.376;2024-01-07T06:53:09;2.08;;;1.90;;
56373;SDS011;58212;47.034;7.376;2024-01-07T06:55:38;2.50;;;2.00;;
56373;SDS011;58212;47.034;7.376;2024-01-07T06:58:10;3.22;;;2.53;;
56373;SDS011;58212;47.034;7.376;2024-01-07T07:00:38;13.35;;;7.72;;
56373;SDS011;58212;47.034;7.376;2024-01-07T07:03:08;59.17;;;31.10;;
56373;SDS011;58212;47.034;7.376;2024-01-07T07:05:34;30.52;;;16.33;;
56373;SDS011;58212;47.034;7.376;2024-01-07T07:08:03;18.20;;;9.98;;
56373;SDS011;58212;47.034;7.376;2024-01-07T07:10:31;14.23;;;8.85;;
56373;SDS011;58212;47.034;7.376;2024-01-07T07:12:58;5.53;;;4.03;;
56373;SDS011;58212;47.034;7.376;2024-01-07T07:15:25;3.13;;;2.83;;
56373;SDS011;58212;47.034;7.376;2024-01-07T07:17:55;2.97;;;2.67;;
56373;SDS011;58212;47.034;7.376;2024-01-07T07:20:22;3.17;;;2.90;;
56373;SDS011;58212;47.034;7.376;2024-01-07T07:22:52;2.97;;;2.78;;
56373;SDS011;58212;47.034;7.376;2024-01-07T07:25:19;3.63;;;3.33;;
56373;SDS011;58212;47.034;7.376;2024-01-07T07:27:46;3.28;;;2.97;;
56373;SDS011;58212;47.034;7.376;2024-01-07T07:30:13;3.40;;;3.08;;
56373;SDS011;58212;47.034;7.376;2024-01-07T07:32:40;3.40;;;3.10;;
56373;SDS011;58212;47.034;7.376;2024-01-07T07:35:09;3.95;;;3.00;;
56373;SDS011;58212;47.034;7.376;2024-01-07T07:37:37;3.80;;;2.88;;
56373;SDS011;58212;47.034;7.376;2024-01-07T07:40:05;3.38;;;2.95;;
56373;SDS011;58212;47.034;7.376;2024-01-07T07:42:32;2.95;;;2.65;;
56373;SDS011;58212;47.034;7.376;2024-01-07T07:44:59;3.28;;;3.00;;
56373;SDS011;58212;47.034;7.376;2024-01-07T07:47:27;3.20;;;2.50;;
56373;SDS011;58212;47.034;7.376;2024-01-07T07:49:54;2.50;;;2.30;;
56373;SDS011;58212;47.034;7.376;2024-01-07T07:52:22;2.45;;;2.25;;
56373;SDS011;58212;47.034;7.376;2024-01-07T07:54:52;2.83;;;2.40;;
56373;SDS011;58212;47.034;7.376;2024-01-07T07:57:19;3.90;;;3.03;;
56373;SDS011;58212;47.034;7.376;2024-01-07T07:59:47;4.07;;;2.60;;
56373;SDS011;58212;47.034;7.376;2024-01-07T08:02:14;3.53;;;3.22;;
56373;SDS011;58212;47.034;7.376;2024-01-07T08:04:41;3.78;;;3.47;;
56373;SDS011;58212;47.034;7.376;2024-01-07T08:07:08;3.53;;;2.90;;
56373;SDS011;58212;47.034;7.376;2024-01-07T08:09:37;3.13;;;2.85;;
56373;SDS011;58212;47.034;7.376;2024-01-07T08:12:04;2.70;;;2.50;;
56373;SDS011;58212;47.034;7.376;2024-01-07T08:14:31;2.75;;;2.55;;
56373;SDS011;58212;47.034;7.376;2024-01-07T08:16:58;2.70;;;2.50;;
56373;SDS011;58212;47.034;7.376;2024-01-07T08:19:25;2.55;;;2.35;;
56373;SDS011;58212;47.034;7.376;2024-01-07T08:21:52;2.45;;;2.25;;
56373;SDS011;58212;47.034;7.376;2024-01-07T08:24:47;2.47;;;2.28;;
56373;SDS011;58212;47.034;7.376;2024-01-07T08:27:15;2.90;;;2.70;;
56373;SDS011;58212;47.034;7.376;2024-01-07T08:29:42;2.58;;;2.38;;
56373;SDS011;58212;47.034;7.376;2024-01-07T08:32:10;2.65;;;2.45;;
56373;SDS011;58212;47.034;7.376;2024-01-07T08:34:37;2.70;;;2.50;;
56373;SDS011;58212;47.034;7.376;2024-01-07T08:37:04;1.90;;;1.80;;
56373;SDS011;58212;47.034;7.376;2024-01-07T08:39:32;2.67;;;2.47;;
56373;SDS011;58212;47.034;7.376;2024-01-07T08:42:01;2.47;;;2.28;;
56373;SDS011;58212;47.034;7.376;2024-01-07T08:44:29;2.25;;;2.10;;
56373;SDS011;58212;47.034;7.376;2024-01-07T08:46:55;2.83;;;2.55;;
56373;SDS011;58212;47.034;7.376;2024-01-07T08:49:22;4.13;;;2.70;;
56373;SDS011;58212;47.034;7.376;2024-01-07T08:51:49;3.10;;;2.80;;
56373;SDS011;58212;47.034;7.376;2024-01-07T08:54:16;2.97;;;2.67;;
56373;SDS011;58212;47.034;7.376;2024-01-07T08:56:43;2.83;;;2.63;;
56373;SDS011;58212;47.034;7.376;2024-01-07T08:59:11;3.28;;;2.97;;
56373;SDS011;58212;47.034;7.376;2024-01-07T09:01:38;3.10;;;2.80;;
56373;SDS011;58212;47.034;7.376;2024-01-07T09:04:05;2.92;;;2.70;;
56373;SDS011;58212;47.034;7.376;2024-01-07T09:06:32;3.50;;;3.20;;
56373;SDS011;58212;47.034;7.376;2024-01-07T09:08:59;2.63;;;2.42;;
56373;SDS011;58212;47.034;7.376;2024-01-07T09:11:25;2.08;;;1.92;;
56373;SDS011;58212;47.034;7.376;2024-01-07T09:13:52;2.08;;;1.98;;
56373;SDS011;58212;47.034;7.376;2024-01-07T09:16:20;2.28;;;2.08;;
56373;SDS011;58212;47.034;7.376;2024-01-07T09:18:47;2.50;;;2.30;;
56373;SDS011;58212;47.034;7.376;2024-01-07T09:21:14;2.40;;;2.20;;
56373;SDS011;58212;47.034;7.376;2024-01-07T09:23:41;3.83;;;3.15;;
56373;SDS011;58212;47.034;7.376;2024-01-07T09:26:09;3.80;;;3.35;;
56373;SDS011;58212;47.034;7.376;2024-01-07T09:28:37;2.80;;;2.30;;
56373;SDS011;58212;47.034;7.376;2024-01-07T09:31:04;2.17;;;1.98;;
56373;SDS011;58212;47.034;7.376;2024-01-07T09:33:32;1.45;;;1.35;;
56373;SDS011;58212;47.034;7.376;2024-01-07T09:36:02;1.58;;;1.48;;
56373;SDS011;58212;47.034;7.376;2024-01-07T09:38:55;1.70;;;1.60;;
56373;SDS011;58212;47.034;7.376;2024-01-07T09:41:22;1.50;;;1.40;;
56373;SDS011;58212;47.034;7.376;2024-01-07T09:43:48;4.43;;;3.05;;
56373;SDS011;58212;47.034;7.376;2024-01-07T09:46:16;3.22;;;2.58;;
56373;SDS011;58212;47.034;7.376;2024-01-07T09:48:45;2.78;;;2.50;;
56373;SDS011;58212;47.034;7.376;2024-01-07T09:51:12;2.35;;;2.15;;
56373;SDS011;58212;47.034;7.376;2024-01-07T09:53:38;3.20;;;2.90;;
56373;SDS011;58212;47.034;7.376;2024-01-07T09:56:07;2.30;;;2.10;;
56373;SDS011;58212;47.034;7.376;2024-01-07T10:01:07;1.40;;;1.30;;
56373;SDS011;58212;47.034;7.376;2024-01-07T10:03:34;1.90;;;1.48;;
56373;SDS011;58212;47.034;7.376;2024-01-07T10:06:03;1.58;;;1.48;;
56373;SDS011;58212;47.034;7.376;2024-01-07T10:08:30;1.33;;;1.23;;
56373;SDS011;58212;47.034;7.376;2024-01-07T10:10:58;1.50;;;1.40;;
56373;SDS011;58212;47.034;7.376;2024-01-07T10:13:26;1.40;;;1.30;;
56373;SDS011;58212;47.034;7.376;2024-01-07T10:15:54;1.85;;;1.73;;
56373;SDS011;58212;47.034;7.376;2024-01-07T10:18:21;2.88;;;2.47;;
56373;SDS011;58212;47.034;7.376;2024-01-07T10:20:48;3.00;;;2.70;;
56373;SDS011;58212;47.034;7.376;2024-01-07T10:23:19;2.50;;;2.30;;
56373;SDS011;58212;47.034;7.376;2024-01-07T10:25:46;2.83;;;2.30;;
56373;SDS011;58212;47.034;7.376;2024-01-07T10:28:12;2.58;;;2.38;;
56373;SDS011;58212;47.034;7.376;2024-01-07T10:30:39;2.20;;;1.90;;
56373;SDS011;58212;47.034;7.376;2024-01-07T10:33:06;1.95;;;1.60;;
56373;SDS011;58212;47.034;7.376;2024-01-07T10:35:34;1.70;;;1.60;;
56373;SDS011;58212;47.034;7.376;2024-01-07T10:38:02;1.92;;;1.80;;
56373;SDS011;58212;47.034;7.376;2024-01-07T10:40:31;1.58;;;1.48;;
56373;SDS011;58212;47.034;7.376;2024-01-07T10:42:59;1.50;;;1.40;;
56373;SDS011;58212;47.034;7.376;2024-01-07T10:45:26;1.88;;;1.70;;
56373;SDS011;58212;47.034;7.376;2024-01-07T10:47:54;1.52;;;1.25;;
56373;SDS011;58212;47.034;7.376;2024-01-07T10:50:26;1.40;;;1.30;;
56373;SDS011;58212;47.034;7.376;2024-01-07T10:52:56;1.23;;;1.13;;
56373;SDS011;58212;47.034;7.376;2024-01-07T10:55:25;1.50;;;1.40;;
56373;SDS011;58212;47.034;7.376;2024-01-07T10:57:59;1.30;;;1.20;;
56373;SDS011;58212;47.034;7.376;2024-01-07T11:00:27;1.65;;;1.55;;
56373;SDS011;58212;47.034;7.376;2024-01-07T11:02:59;1.30;;;1.20;;
56373;SDS011;58212;47.034;7.376;2024-01-07T11:05:33;1.33;;;1.23;;
56373;SDS011;58212;47.034;7.376;2024-01-07T11:08:11;1.50;;;1.40;;
56373;SDS011;58212;47.034;7.376;2024-01-07T11:10:47;1.77;;;1.45;;
56373;SDS011;58212;47.034;7.376;2024-01-07T11:13:32;1.48;;;1.38;;
56373;SDS011;58212;47.034;7.376;2024-01-07T11:16:02;1.40;;;1.30;;
56373;SDS011;58212;47.034;7.376;2024-01-07T11:18:29;1.42;;;1.27;;
56373;SDS011;58212;47.034;7.376;2024-01-07T11:21:00;2.03;;;1.52;;
56373;SDS011;58212;47.034;7.376;2024-01-07T11:23:31;2.30;;;1.60;;
56373;SDS011;58212;47.034;7.376;2024-01-07T11:26:00;1.10;;;1.00;;
56373;SDS011;58212;47.034;7.376;2024-01-07T11:31:19;1.00;;;0.95;;
56373;SDS011;58212;47.034;7.376;2024-01-07T11:33:47;1.33;;;1.23;;
56373;SDS011;58212;47.034;7.376;2024-01-07T11:36:15;1.25;;;1.15;;
56373;SDS011;58212;47.034;7.376;2024-01-07T11:38:43;1.15;;;1.05;;
56373;SDS011;58212;47.034;7.376;2024-01-07T11:41:13;0.88;;;0.88;;
56373;SDS011;58212;47.034;7.376;2024-01-07T11:43:53;1.50;;;1.38;;
56373;SDS011;58212;47.034;7.376;2024-01-07T11:46:21;1.05;;;1.02;;
56373;SDS011;58212;47.034;7.376;2024-01-07T11:48:49;1.40;;;0.90;;
56373;SDS011;58212;47.034;7.376;2024-01-07T11:51:16;1.10;;;1.00;;
56373;SDS011;58212;47.034;7.376;2024-01-07T11:53:45;1.48;;;1.38;;
56373;SDS011;58212;47.034;7.376;2024-01-07T11:56:12;2.30;;;2.10;;
56373;SDS011;58212;47.034;7.376;2024-01-07T11:58:39;1.75;;;1.50;;
56373;SDS011;58212;47.034;7.376;2024-01-07T12:01:08;1.20;;;1.10;;
56373;SDS011;58212;47.034;7.376;2024-01-07T12:03:34;1.00;;;0.90;;
56373;SDS011;58212;47.034;7.376;2024-01-07T12:06:01;0.82;;;0.75;;
56373;SDS011;58212;47.034;7.376;2024-01-07T12:08:28;0.80;;;0.80;;
56373;SDS011;58212;47.034;7.376;2024-01-07T12:10:56;6.03;;;3.00;;
56373;SDS011;58212;47.034;7.376;2024-01-07T12:13:23;1.90;;;1.70;;
56373;SDS011;58212;47.034;7.376;2024-01-07T12:15:50;2.45;;;2.10;;
56373;SDS011;58212;47.034;7.376;2024-01-07T12:18:20;2.10;;;1.73;;
56373;SDS011;58212;47.034;7.376;2024-01-07T12:20:54;2.05;;;1.27;;
56373;SDS011;58212;47.034;7.376;2024-01-07T12:23:22;2.47;;;2.05;;
56373;SDS011;58212;47.034;7.376;2024-01-07T12:25:50;2.08;;;1.88;;
56373;SDS011;58212;47.034;7.376;2024-01-07T12:28:17;2.50;;;1.80;;
56373;SDS011;58212;47.034;7.376;2024-01-07T12:30:44;2.47;;;2.08;;
56373;SDS011;58212;47.034;7.376;2024-01-07T12:33:11;2.40;;;2.10;;
56373;SDS011;58212;47.034;7.376;2024-01-07T12:35:39;2.10;;;1.90;;
56373;SDS011;58212;47.034;7.376;2024-01-07T12:38:06;1.70;;;1.60;;
56373;SDS011;58212;47.034;7.376;2024-01-07T12:40:33;2.63;;;2.08;;
56373;SDS011;58212;47.034;7.376;2024-01-07T12:43:00;2.47;;;2.28;;
56373;SDS011;58212;47.034;7.376;2024-01-07T12:45:27;1.90;;;1.70;;
56373;SDS011;58212;47.034;7.376;2024-01-07T12:47:54;1.73;;;1.63;;
56373;SDS011;58212;47.034;7.376;2024-01-07T12:50:24;1.77;;;1.67;;
56373;SDS011;58212;47.034;7.376;2024-01-07T12:52:54;2.17;;;1.67;;
56373;SDS011;58212;47.034;7.376;2024-01-07T12:55:22;1.60;;;1.50;;
56373;SDS011;58212;47.034;7.376;2024-01-07T12:57:49;2.88;;;2.03;;
56373;SDS011;58212;47.034;7.376;2024-01-07T13:00:17;1.90;;;1.80;;
56373;SDS011;58212;47.034;7.376;2024-01-07T13:02:45;2.38;;;2.17;;
56373;SDS011;58212;47.034;7.376;2024-01-07T13:05:12;1.67;;;1.58;;
56373;SDS011;58212;47.034;7.376;2024-01-07T13:07:39;2.08;;;1.70;;
56373;SDS011;58212;47.034;7.376;2024-01-07T13:10:08;1.88;;;1.77;;
56373;SDS011;58212;47.034;7.376;2024-01-07T13:12:35;1.90;;;1.75;;
56373;SDS011;58212;47.034;7.376;2024-01-07T13:15:02;2.28;;;2.15;;
56373;SDS011;58212;47.034;7.376;2024-01-07T13:17:29;2.30;;;2.10;;
56373;SDS011;58212;47.034;7.376;2024-01-07T13:19:58;2.55;;;2.35;;
56373;SDS011;58212;47.034;7.376;2024-01-07T13:22:25;1.95;;;1.83;;
56373;SDS011;58212;47.034;7.376;2024-01-07T13:24:52;2.15;;;1.95;;
56373;SDS011;58212;47.034;7.376;2024-01-07T13:27:21;2.63;;;2.42;;
56373;SDS011;58212;47.034;7.376;2024-01-07T13:29:48;1.63;;;1.52;;
56373;SDS011;58212;47.034;7.376;2024-01-07T13:32:19;1.70;;;1.60;;
56373;SDS011;58212;47.034;7.376;2024-01-07T13:35:11;1.40;;;1.30;;
56373;SDS011;58212;47.034;7.376;2024-01-07T13:37:38;1.55;;;1.45;;
56373;SDS011;58212;47.034;7.376;2024-01-07T13:40:17;1.10;;;1.00;;
56373;SDS011;58212;47.034;7.376;2024-01-07T13:42:46;1.27;;;1.17;;
56373;SDS011;58212;47.034;7.376;2024-01-07T13:45:16;1.13;;;1.02;;
56373;SDS011;58212;47.034;7.376;2024-01-07T13:47:45;0.80;;;0.80;;
56373;SDS011;58212;47.034;7.376;2024-01-07T13:50:12;1.17;;;1.08;;
56373;SDS011;58212;47.034;7.376;2024-01-07T13:52:39;1.40;;;1.30;;
56373;SDS011;58212;47.034;7.376;2024-01-07T13:55:06;1.88;;;1.30;;
56373;SDS011;58212;47.034;7.376;2024-01-07T13:57:34;2.08;;;1.20;;
56373;SDS011;58212;47.034;7.376;2024-01-07T14:00:04;1.30;;;1.20;;
56373;SDS011;58212;47.034;7.376;2024-01-07T14:02:35;1.17;;;1.00;;
56373;SDS011;58212;47.034;7.376;2024-01-07T14:05:03;1.75;;;1.30;;
56373;SDS011;58212;47.034;7.376;2024-01-07T14:07:33;1.30;;;1.10;;
56373;SDS011;58212;47.034;7.376;2024-01-07T14:10:00;1.40;;;1.30;;
56373;SDS011;58212;47.034;7.376;2024-01-07T14:12:29;1.42;;;1.30;;
56373;SDS011;58212;47.034;7.376;2024-01-07T14:14:56;1.77;;;1.20;;
56373;SDS011;58212;47.034;7.376;2024-01-07T14:17:25;1.50;;;1.40;;
56373;SDS011;58212;47.034;7.376;2024-01-07T14:19:52;1.40;;;1.30;;
56373;SDS011;58212;47.034;7.376;2024-01-07T14:22:19;1.70;;;1.33;;
56373;SDS011;58212;47.034;7.376;2024-01-07T14:24:46;1.70;;;1.60;;
56373;SDS011;58212;47.034;7.376;2024-01-07T14:27:14;1.20;;;1.10;;
56373;SDS011;58212;47.034;7.376;2024-01-07T14:29:41;1.40;;;1.30;;
56373;SDS011;58212;47.034;7.376;2024-01-07T14:35:02;1.60;;;1.50;;
56373;SDS011;58212;47.034;7.376;2024-01-07T14:37:53;2.03;;;1.55;;
56373;SDS011;58212;47.034;7.376;2024-01-07T14:40:22;1.70;;;1.60;;
56373;SDS011;58212;47.034;7.376;2024-01-07T14:42:49;2.55;;;1.85;;
56373;SDS011;58212;47.034;7.376;2024-01-07T14:45:18;1.85;;;1.70;;
56373;SDS011;58212;47.034;7.376;2024-01-07T14:48:11;1.60;;;1.50;;
56373;SDS011;58212;47.034;7.376;2024-01-07T14:50:39;1.90;;;1.40;;
56373;SDS011;58212;47.034;7.376;2024-01-07T14:53:06;1.40;;;1.27;;
56373;SDS011;58212;47.034;7.376;2024-01-07T14:55:33;1.10;;;1.00;;
56373;SDS011;58212;47.034;7.376;2024-01-07T14:58:00;0.80;;;0.80;;
56373;SDS011;58212;47.034;7.376;2024-01-07T15:00:27;0.80;;;0.80;;
56373;SDS011;58212;47.034;7.376;2024-01-07T15:02:54;1.10;;;1.00;;
56373;SDS011;58212;47.034;7.376;2024-01-07T15:05:22;1.15;;;0.73;;